Time;durP1;ratioP1;P1;durP2;ratioP2;P2;SDS_P1;SDS_P2;PMS_P1;PMS_P2;Temp;Humidity;BMP_temperature;BMP_pressure;BME280_temperature;BME280_humidity;BME280_pressure;Samples;Min_cycle;Max_cycle;Signal;HPM_P1;HPM_P2
2022/07/25 00:01:21;;;;;;;;;;;;;;;15.78;64.74;98679.08;106188;1278;124963;-82
2022/07/25 00:03:49;;;;;;;;;;;;;;;15.74;64.92;98677.02;106651;1277;22551;-82
2022/07/25 00:06:19;;;;;;;;;;;;;;;15.72;65.28;98678.99;106370;1277;24229;-82
2022/07/25 00:08:46;;;;;;;;;;;;;;;15.72;65.41;98679.81;106199;1277;124762;-82
2022/07/25 00:11:12;;;;;;;;;;;;;;;15.72;65.41;98676.40;106321;1277;24357;-82
2022/07/25 00:13:40;;;;;;;;;;;;;;;15.70;65.73;98671.56;106023;1278;124079;-82
2022/07/25 00:16:09;;;;;;;;;;;;;;;15.68;65.50;98673.88;106453;1275;22863;-82
2022/07/25 00:18:38;;;;;;;;;;;;;;;15.63;65.48;98674.80;106548;1277;22761;-82
2022/07/25 00:21:09;;;;;;;;;;;;;;;15.62;65.46;98672.98;106496;1277;123967;-82
2022/07/25 00:23:36;;;;;;;;;;;;;;;15.61;66.02;98672.83;106494;1278;24539;-83
2022/07/25 00:26:05;;;;;;;;;;;;;;;15.59;66.06;98670.63;106177;1277;123970;-82
2022/07/25 00:28:33;;;;;;;;;;;;;;;15.57;66.38;98671.17;106597;1277;23977;-82
2022/07/25 00:31:02;;;;;;;;;;;;;;;15.54;66.13;98667.21;106437;1278;25315;-82
2022/07/25 00:33:28;;;;;;;;;;;;;;;15.52;66.14;98668.26;105752;1281;124066;-82
2022/07/25 00:35:58;;;;;;;;;;;;;;;15.48;66.27;98661.98;106354;1278;22556;-82
2022/07/25 00:38:27;;;;;;;;;;;;;;;15.43;66.52;98665.34;106133;1277;124166;-82
2022/07/25 00:40:57;;;;;;;;;;;;;;;15.38;66.58;98661.42;106986;1277;25303;-82
2022/07/25 00:43:26;;;;;;;;;;;;;;;15.36;66.64;98662.79;106147;1277;125152;-82
2022/07/25 00:45:57;;;;;;;;;;;;;;;15.35;66.48;98661.14;106024;1281;22535;-82
2022/07/25 00:48:27;;;;;;;;;;;;;;;15.34;66.58;98656.86;106622;1277;22682;-81
2022/07/25 00:50:53;;;;;;;;;;;;;;;15.34;66.96;98657.13;106133;1277;124193;-82
2022/07/25 00:53:21;;;;;;;;;;;;;;;15.32;66.94;98657.52;106730;1277;24298;-82
2022/07/25 00:55:48;;;;;;;;;;;;;;;15.31;67.02;98658.39;106942;1277;124593;-82
2022/07/25 00:58:15;;;;;;;;;;;;;;;15.28;66.79;98659.31;106012;1277;24431;-82
2022/07/25 01:00:46;;;;;;;;;;;;;;;15.26;66.72;98654.59;106355;1277;23336;-82
2022/07/25 01:03:13;;;;;;;;;;;;;;;15.25;67.13;98654.20;106302;1277;123982;-82
2022/07/25 01:05:41;;;;;;;;;;;;;;;15.23;67.35;98647.50;106316;1278;22594;-82
2022/07/25 01:08:08;;;;;;;;;;;;;;;15.18;67.53;98651.07;106498;1277;123931;-82
2022/07/25 01:10:35;;;;;;;;;;;;;;;15.12;68.23;98643.58;106186;1277;25423;-82
2022/07/25 01:13:02;;;;;;;;;;;;;;;15.05;68.19;98643.77;106473;1277;22622;-82
2022/07/25 01:15:29;;;;;;;;;;;;;;;14.99;68.39;98638.17;106475;1277;124156;-82
2022/07/25 01:17:56;;;;;;;;;;;;;;;14.98;68.54;98641.19;106255;1277;22591;-82
2022/07/25 01:20:24;;;;;;;;;;;;;;;14.99;68.30;98639.27;106117;1278;124873;-83
2022/07/25 01:22:51;;;;;;;;;;;;;;;15.01;68.07;98640.36;106438;1280;24138;-82
2022/07/25 01:25:18;;;;;;;;;;;;;;;15.03;67.98;98635.88;106760;1277;124401;-82
2022/07/25 01:27:48;;;;;;;;;;;;;;;15.05;68.01;98631.88;106377;1277;21813;-83
2022/07/25 01:30:15;;;;;;;;;;;;;;;15.04;68.66;98634.61;106567;1277;22537;-84
2022/07/25 01:32:43;;;;;;;;;;;;;;;15.01;68.69;98634.00;106306;1277;124018;-84
2022/07/25 01:35:10;;;;;;;;;;;;;;;14.99;69.15;98633.56;106552;1277;25350;-80
2022/07/25 01:37:38;;;;;;;;;;;;;;;14.97;69.49;98635.09;106201;1278;124364;-84
2022/07/25 01:40:05;;;;;;;;;;;;;;;14.94;69.55;98635.73;106515;1277;22551;-84
2022/07/25 01:42:32;;;;;;;;;;;;;;;14.93;69.38;98635.24;106641;1277;22580;-81
2022/07/25 01:44:58;;;;;;;;;;;;;;;14.92;69.09;98633.80;106637;1277;124640;-82
2022/07/25 01:47:25;;;;;;;;;;;;;;;14.92;68.82;98633.75;106527;1277;22561;-83
2022/07/25 01:49:51;;;;;;;;;;;;;;;14.93;68.69;98630.52;106649;1280;124265;-82
2022/07/25 01:52:18;;;;;;;;;;;;;;;14.91;69.16;98625.91;106950;1277;22562;-82
2022/07/25 01:54:46;;;;;;;;;;;;;;;14.89;69.33;98629.02;106977;1277;23217;-81
2022/07/25 01:57:15;;;;;;;;;;;;;;;14.86;69.65;98632.64;106655;1277;124063;-81
2022/07/25 01:59:42;;;;;;;;;;;;;;;14.84;69.92;98631.30;106817;1277;22772;-84
2022/07/25 02:02:09;;;;;;;;;;;;;;;14.84;69.49;98631.04;106527;1277;124026;-82
2022/07/25 02:04:40;;;;;;;;;;;;;;;14.82;69.47;98629.08;106916;1277;25041;-83
2022/07/25 02:07:08;;;;;;;;;;;;;;;14.80;69.63;98633.66;106689;1277;24285;-82
2022/07/25 02:09:36;;;;;;;;;;;;;;;14.75;69.67;98630.84;106911;1277;126571;-82
2022/07/25 02:12:06;;;;;;;;;;;;;;;14.72;69.94;98628.25;106336;1277;22727;-82
2022/07/25 02:14:33;;;;;;;;;;;;;;;14.72;69.99;98627.16;106518;1280;124855;-82
2022/07/25 02:17:00;;;;;;;;;;;;;;;14.72;70.26;98627.43;106576;1277;22545;-81
2022/07/25 02:19:28;;;;;;;;;;;;;;;14.71;70.55;98626.56;106472;1277;124235;-81
2022/07/25 02:21:55;;;;;;;;;;;;;;;14.72;70.75;98627.98;106450;1277;22605;-81
2022/07/25 02:24:21;;;;;;;;;;;;;;;14.72;70.95;98627.98;106338;1277;24208;-81
2022/07/25 02:26:48;;;;;;;;;;;;;;;14.72;70.89;98625.68;106230;1278;124047;-81
2022/07/25 02:29:15;;;;;;;;;;;;;;;14.70;71.20;98626.77;106455;1281;22533;-82
2022/07/25 02:31:42;;;;;;;;;;;;;;;14.69;71.23;98625.61;106479;1277;124558;-81
2022/07/25 02:34:16;;;;;;;;;;;;;;;14.68;71.29;98621.94;106254;1278;24225;-82
2022/07/25 02:36:44;;;;;;;;;;;;;;;14.70;71.26;98619.59;106462;1277;25251;-82
2022/07/25 02:39:17;;;;;;;;;;;;;;;14.72;71.22;98620.08;106437;1277;124558;-82
2022/07/25 02:41:43;;;;;;;;;;;;;;;14.72;71.11;98618.27;106563;1275;24269;-82
2022/07/25 02:44:14;;;;;;;;;;;;;;;14.74;71.41;98625.95;106555;1277;123999;-82
2022/07/25 02:46:44;;;;;;;;;;;;;;;14.72;71.47;98623.37;106836;1277;25395;-82
2022/07/25 02:49:15;;;;;;;;;;;;;;;14.70;71.64;98622.38;106765;1277;24231;-82
2022/07/25 02:51:44;;;;;;;;;;;;;;;14.67;71.60;98622.21;106324;1278;30588;-82
2022/07/25 02:54:11;;;;;;;;;;;;;;;14.65;71.80;98623.18;106607;1277;24322;-82
2022/07/25 02:56:38;;;;;;;;;;;;;;;14.63;72.11;98622.02;106332;1277;124864;-82
2022/07/25 02:59:04;;;;;;;;;;;;;;;14.62;72.38;98622.85;106574;1277;22561;-82
2022/07/25 03:01:33;;;;;;;;;;;;;;;14.63;72.44;98620.04;106262;1277;124417;-82
2022/07/25 03:04:00;;;;;;;;;;;;;;;14.66;72.14;98622.98;106685;1277;25321;-82
2022/07/25 03:06:28;;;;;;;;;;;;;;;14.65;72.09;98621.27;106340;1277;22556;-82
2022/07/25 03:08:56;;;;;;;;;;;;;;;14.63;72.24;98623.33;106216;1277;123973;-82
2022/07/25 03:11:23;;;;;;;;;;;;;;;14.59;72.38;98622.84;106650;1277;25485;-82
2022/07/25 03:13:50;;;;;;;;;;;;;;;14.57;72.65;98620.33;106489;1277;124284;-82
2022/07/25 03:16:19;;;;;;;;;;;;;;;14.54;72.76;98617.84;106483;1278;22598;-82
2022/07/25 03:18:48;;;;;;;;;;;;;;;14.52;72.60;98617.50;106128;1277;22552;-82
2022/07/25 03:21:17;;;;;;;;;;;;;;;14.50;72.58;98618.05;106411;1277;124292;-81
2022/07/25 03:23:44;;;;;;;;;;;;;;;14.49;72.69;98621.70;106224;1278;22596;-81
2022/07/25 03:26:10;;;;;;;;;;;;;;;14.47;72.71;98627.34;106325;1280;124119;-82
2022/07/25 03:28:37;;;;;;;;;;;;;;;14.44;72.71;98630.56;106772;1277;22613;-81
2022/07/25 03:31:04;;;;;;;;;;;;;;;14.44;72.83;98633.31;106560;1277;22700;-81
2022/07/25 03:33:32;;;;;;;;;;;;;;;14.44;72.63;98637.85;106766;1277;123713;-81
2022/07/25 03:35:59;;;;;;;;;;;;;;;14.44;72.61;98638.55;106656;1277;25465;-81
2022/07/25 03:38:25;;;;;;;;;;;;;;;14.46;72.83;98636.72;106241;1277;124142;-81
2022/07/25 03:40:55;;;;;;;;;;;;;;;14.48;72.84;98637.16;106616;1277;25458;-81
2022/07/25 03:43:25;;;;;;;;;;;;;;;14.50;72.76;98633.16;106482;1275;126399;-81
2022/07/25 03:46:01;;;;;;;;;;;;;;;14.53;73.11;98635.27;106595;1277;24322;-81
2022/07/25 03:48:27;;;;;;;;;;;;;;;14.56;73.49;98635.89;106770;1277;24250;-81
2022/07/25 03:50:55;;;;;;;;;;;;;;;14.59;73.48;98637.30;106300;1277;124023;-81
2022/07/25 03:53:22;;;;;;;;;;;;;;;14.59;73.75;98640.16;106546;1277;24255;-81
2022/07/25 03:55:49;;;;;;;;;;;;;;;14.61;73.85;98639.17;106104;1280;124174;-81
2022/07/25 03:58:17;;;;;;;;;;;;;;;14.63;73.85;98635.73;106415;1277;25477;-82
2022/07/25 04:00:46;;;;;;;;;;;;;;;14.68;73.67;98634.82;106381;1277;22533;-82
2022/07/25 04:03:13;;;;;;;;;;;;;;;14.72;73.68;98627.82;106334;1277;124341;-82
2022/07/25 04:05:41;;;;;;;;;;;;;;;14.80;73.66;98633.27;106625;1277;22530;-82
2022/07/25 04:08:08;;;;;;;;;;;;;;;14.82;73.71;98630.22;106277;1277;124026;-82
2022/07/25 04:10:34;;;;;;;;;;;;;;;14.84;73.73;98627.98;106609;1277;25346;-81
2022/07/25 04:13:01;;;;;;;;;;;;;;;14.86;73.82;98625.14;106345;1277;22561;-81
2022/07/25 04:15:28;;;;;;;;;;;;;;;14.89;74.17;98629.20;106291;1277;124083;-81
2022/07/25 04:17:55;;;;;;;;;;;;;;;14.92;73.99;98622.96;106209;1277;22836;-81
2022/07/25 04:20:23;;;;;;;;;;;;;;;14.95;73.74;98620.45;106289;1277;125210;-81
2022/07/25 04:22:52;;;;;;;;;;;;;;;14.99;73.92;98618.42;106504;1277;22645;-82
2022/07/25 04:25:19;;;;;;;;;;;;;;;15.04;74.06;98616.57;106311;1277;124569;-82
2022/07/25 04:27:46;;;;;;;;;;;;;;;15.07;74.25;98618.29;106303;1277;24412;-81
2022/07/25 04:30:13;;;;;;;;;;;;;;;15.13;74.11;98612.75;106329;1277;25313;-81
2022/07/25 04:32:39;;;;;;;;;;;;;;;15.16;74.17;98614.85;106419;1280;124068;-81
2022/07/25 04:35:06;;;;;;;;;;;;;;;15.19;74.08;98610.40;106529;1277;22708;-82
2022/07/25 04:37:35;;;;;;;;;;;;;;;15.23;74.02;98613.70;106555;1277;124182;-81
2022/07/25 04:40:03;;;;;;;;;;;;;;;15.27;74.00;98613.49;106659;1277;22569;-81
2022/07/25 04:42:29;;;;;;;;;;;;;;;15.32;74.24;98611.92;106837;1277;22550;-81
2022/07/25 04:44:56;;;;;;;;;;;;;;;15.36;74.13;98607.80;106172;1278;124286;-81
2022/07/25 04:47:22;;;;;;;;;;;;;;;15.42;74.21;98610.43;106558;1277;22590;-81
2022/07/25 04:49:49;;;;;;;;;;;;;;;15.44;74.39;98607.54;106384;1277;124714;-81
2022/07/25 04:52:16;;;;;;;;;;;;;;;15.47;74.63;98602.44;106114;1277;22551;-81
2022/07/25 04:54:42;;;;;;;;;;;;;;;15.47;74.56;98603.14;106071;1280;24260;-81
2022/07/25 04:57:09;;;;;;;;;;;;;;;15.49;74.76;98605.29;105957;1275;124231;-81
2022/07/25 04:59:36;;;;;;;;;;;;;;;15.51;74.56;98606.11;106222;1277;25366;-81
2022/07/25 05:02:03;;;;;;;;;;;;;;;15.56;74.31;98606.00;106168;1277;125213;-81
2022/07/25 05:04:29;;;;;;;;;;;;;;;15.62;74.41;98604.52;106078;1277;22684;-81
2022/07/25 05:06:56;;;;;;;;;;;;;;;15.71;74.67;98604.57;106141;1277;22543;-81
2022/07/25 05:09:23;;;;;;;;;;;;;;;15.79;74.25;98604.38;106071;1277;124033;-81
2022/07/25 05:11:50;;;;;;;;;;;;;;;15.85;73.63;98605.04;106095;1277;22668;-81
2022/07/25 05:14:16;;;;;;;;;;;;;;;15.92;73.65;98603.71;106339;1277;124573;-80
2022/07/25 05:16:43;;;;;;;;;;;;;;;15.99;73.95;98598.15;106205;1274;24303;-81
2022/07/25 05:19:11;;;;;;;;;;;;;;;16.07;73.31;98595.23;106034;1277;25263;-81
2022/07/25 05:21:37;;;;;;;;;;;;;;;16.13;73.46;98592.31;106099;1277;123866;-80
2022/07/25 05:24:04;;;;;;;;;;;;;;;16.20;74.07;98586.40;106089;1279;22886;-81
2022/07/25 05:26:31;;;;;;;;;;;;;;;16.28;74.20;98588.04;106113;1279;124741;-80
2022/07/25 05:28:57;;;;;;;;;;;;;;;16.35;74.54;98587.85;106089;1279;22552;-81
2022/07/25 05:31:24;;;;;;;;;;;;;;;16.44;74.58;98582.65;105965;1279;125113;-81
2022/07/25 05:33:51;;;;;;;;;;;;;;;16.56;74.66;98583.87;106070;1280;25414;-80
2022/07/25 05:36:18;;;;;;;;;;;;;;;16.64;74.32;98587.47;106066;1277;22531;-81
2022/07/25 05:38:44;;;;;;;;;;;;;;;16.74;74.18;98585.38;106225;1277;124502;-81
2022/07/25 05:41:11;;;;;;;;;;;;;;;16.82;73.27;98587.29;106532;1277;24434;-81
2022/07/25 05:43:41;;;;;;;;;;;;;;;16.89;72.84;98580.27;106667;1277;124276;-84
2022/07/25 05:46:08;;;;;;;;;;;;;;;16.95;71.92;98576.06;106222;1277;24344;-81
2022/07/25 05:48:36;;;;;;;;;;;;;;;17.02;71.87;98576.75;106328;1277;22535;-82
2022/07/25 05:51:02;;;;;;;;;;;;;;;17.07;72.03;98576.98;105934;1277;124210;-82
2022/07/25 05:53:29;;;;;;;;;;;;;;;17.14;72.12;98575.41;105940;1277;22574;-81
2022/07/25 05:55:58;;;;;;;;;;;;;;;17.21;72.09;98579.10;105912;1277;124888;-80
2022/07/25 05:58:25;;;;;;;;;;;;;;;17.27;72.15;98574.59;106109;1280;24604;-81
2022/07/25 06:00:52;;;;;;;;;;;;;;;17.36;71.89;98576.02;106209;1277;25291;-82
2022/07/25 06:03:20;;;;;;;;;;;;;;;17.46;71.63;98582.65;106555;1277;124617;-81
2022/07/25 06:05:51;;;;;;;;;;;;;;;17.57;71.51;98581.30;106926;1276;22562;-81
2022/07/25 06:08:18;;;;;;;;;;;;;;;17.67;71.35;98576.22;106054;1277;124000;-81
2022/07/25 06:10:47;;;;;;;;;;;;;;;17.76;71.12;98572.05;106516;1277;23980;-81
2022/07/25 06:13:14;;;;;;;;;;;;;;;17.86;70.94;98572.53;106685;1277;22708;-83
2022/07/25 06:15:47;;;;;;;;;;;;;;;17.96;70.73;98572.17;106673;1277;23349;-83
2022/07/25 06:18:25;;;;;;;;;;;;;;;18.03;70.44;98573.75;106533;1277;22595;-82
2022/07/25 06:20:55;;;;;;;;;;;;;;;18.10;69.99;98575.28;106316;1280;124079;-82
2022/07/25 06:23:23;;;;;;;;;;;;;;;18.17;69.71;98573.07;106895;1276;24323;-82
2022/07/25 06:25:52;;;;;;;;;;;;;;;18.27;69.49;98578.40;106544;1277;124299;-80
2022/07/25 06:28:43;;;;;;;;;;;;;;;18.37;69.30;98573.83;106386;1277;24374;-79
2022/07/25 06:31:10;;;;;;;;;;;;;;;18.46;69.02;98571.64;106811;1277;25449;-85
2022/07/25 06:33:37;;;;;;;;;;;;;;;18.55;68.60;98564.84;106298;1277;124449;-84
2022/07/25 06:36:07;;;;;;;;;;;;;;;18.65;68.52;98563.34;106475;1277;22604;-85
2022/07/25 06:38:39;;;;;;;;;;;;;;;18.73;67.48;98557.99;106744;1277;124135;-83
2022/07/25 06:41:07;;;;;;;;;;;;;;;18.81;66.79;98555.25;106957;1277;25417;-83
2022/07/25 06:43:34;;;;;;;;;;;;;;;18.90;66.21;98549.52;106536;1277;124117;-81
2022/07/25 06:46:01;;;;;;;;;;;;;;;18.98;65.88;98549.34;106314;1280;22592;-81
2022/07/25 06:48:29;;;;;;;;;;;;;;;19.07;65.38;98550.11;106307;1277;22668;-82
2022/07/25 06:50:56;;;;;;;;;;;;;;;19.15;64.98;98542.25;106526;1277;123972;-81
2022/07/25 06:53:23;;;;;;;;;;;;;;;19.25;65.17;98537.08;106915;1277;24300;-80
2022/07/25 06:55:51;;;;;;;;;;;;;;;19.34;65.05;98530.69;106784;1277;124401;-81
2022/07/25 06:58:19;;;;;;;;;;;;;;;19.44;64.98;98528.21;106841;1277;24250;-81
2022/07/25 07:00:50;;;;;;;;;;;;;;;19.53;64.67;98526.29;106469;1277;23340;-81
2022/07/25 07:03:20;;;;;;;;;;;;;;;19.63;64.61;98526.61;106391;1277;124668;-81
2022/07/25 07:05:51;;;;;;;;;;;;;;;19.73;63.74;98518.45;107071;1280;27937;-81
2022/07/25 07:08:18;;;;;;;;;;;;;;;19.83;62.98;98517.11;106804;1279;124224;-81
2022/07/25 07:10:51;;;;;;;;;;;;;;;19.95;62.52;98515.08;106747;1280;25221;-82
2022/07/25 07:13:18;;;;;;;;;;;;;;;20.04;61.58;98515.66;106223;1280;124078;-83
2022/07/25 07:15:48;;;;;;;;;;;;;;;20.16;61.22;98507.47;106431;1277;25561;-82
2022/07/25 07:18:22;;;;;;;;;;;;;;;20.28;61.33;98504.13;106531;1277;22566;-81
2022/07/25 07:20:55;;;;;;;;;;;;;;;20.40;61.19;98501.47;106814;1277;124114;-81
2022/07/25 07:23:24;;;;;;;;;;;;;;;20.50;60.91;98501.25;107052;1279;24216;-82
2022/07/25 07:25:52;;;;;;;;;;;;;;;20.60;60.52;98500.15;106670;1277;124147;-82
2022/07/25 07:28:20;;;;;;;;;;;;;;;20.71;59.99;98500.51;106203;1280;23325;-82
2022/07/25 07:30:51;;;;;;;;;;;;;;;20.81;59.89;98498.04;106598;1277;22603;-82
2022/07/25 07:33:21;;;;;;;;;;;;;;;20.93;59.49;98500.60;106413;1277;124197;-81
2022/07/25 07:35:54;;;;;;;;;;;;;;;21.04;59.30;98499.84;106388;1277;25249;-82
2022/07/25 07:38:24;;;;;;;;;;;;;;;21.16;58.54;98499.06;106245;1277;124197;-82
2022/07/25 07:40:57;;;;;;;;;;;;;;;21.25;57.88;98502.05;106404;1278;22683;-82
2022/07/25 07:43:26;;;;;;;;;;;;;;;21.36;57.66;98500.30;106618;1277;124069;-82
2022/07/25 07:45:54;;;;;;;;;;;;;;;21.49;56.64;98503.53;106405;1277;25354;-83
2022/07/25 07:48:24;;;;;;;;;;;;;;;21.63;56.95;98499.09;106776;1277;24252;-83
2022/07/25 07:50:53;;;;;;;;;;;;;;;21.75;56.40;98501.09;107399;1277;124200;-83
2022/07/25 07:53:21;;;;;;;;;;;;;;;21.91;56.37;98496.09;107042;1277;22570;-84
2022/07/25 07:55:56;;;;;;;;;;;;;;;22.07;55.65;98494.20;106589;1277;124633;-81
2022/07/25 07:58:26;;;;;;;;;;;;;;;22.24;54.66;98495.02;106860;1277;22525;-81
2022/07/25 08:00:55;;;;;;;;;;;;;;;22.41;54.48;98491.85;106749;1277;22588;-82
2022/07/25 08:03:23;;;;;;;;;;;;;;;22.56;54.58;98489.70;106772;1277;124095;-83
2022/07/25 08:05:53;;;;;;;;;;;;;;;22.73;54.88;98491.68;107033;1277;22641;-83
2022/07/25 08:08:21;;;;;;;;;;;;;;;22.87;53.83;98493.20;106700;1274;124205;-81
2022/07/25 08:10:51;;;;;;;;;;;;;;;22.99;52.96;98491.38;107155;1277;22655;-83
2022/07/25 08:13:23;;;;;;;;;;;;;;;23.10;52.29;98490.10;106746;1280;124709;-82
2022/07/25 08:15:56;;;;;;;;;;;;;;;23.24;51.89;98484.50;106591;1278;22530;-81
2022/07/25 08:18:28;;;;;;;;;;;;;;;23.37;51.19;98483.34;106687;1280;22549;-82
2022/07/25 08:20:57;;;;;;;;;;;;;;;23.51;51.17;98485.95;106554;1277;124032;-82
2022/07/25 08:23:27;;;;;;;;;;;;;;;23.58;51.18;98486.67;106747;1279;22559;-83
2022/07/25 08:25:53;;;;;;;;;;;;;;;23.66;50.41;98491.39;106759;1277;124240;-81
2022/07/25 08:28:22;;;;;;;;;;;;;;;23.75;49.78;98488.27;106767;1277;22681;-81
2022/07/25 08:30:51;;;;;;;;;;;;;;;23.85;49.65;98489.02;107523;1277;22564;-81
2022/07/25 08:33:18;;;;;;;;;;;;;;;23.97;49.41;98488.88;107030;1277;123921;-80
2022/07/25 08:35:52;;;;;;;;;;;;;;;24.10;48.36;98482.17;107290;1277;22528;-80
2022/07/25 08:38:26;;;;;;;;;;;;;;;24.24;47.75;98478.38;107067;1280;124322;-84
2022/07/25 08:41:01;;;;;;;;;;;;;;;24.37;47.60;98476.28;106928;1280;22560;-83
2022/07/25 08:43:31;;;;;;;;;;;;;;;24.52;46.88;98472.54;106644;1280;124309;-80
2022/07/25 08:45:59;;;;;;;;;;;;;;;24.66;46.22;98467.35;106296;1277;22671;-80
2022/07/25 08:48:28;;;;;;;;;;;;;;;24.81;44.77;98468.11;106895;1277;22554;-80
2022/07/25 08:50:56;;;;;;;;;;;;;;;24.92;43.22;98461.66;106686;1277;124510;-87
2022/07/25 08:53:24;;;;;;;;;;;;;;;24.99;42.70;98460.57;106218;1277;22560;-80
2022/07/25 08:55:55;;;;;;;;;;;;;;;25.11;42.28;98462.88;106806;1277;124129;-81
2022/07/25 08:58:23;;;;;;;;;;;;;;;25.22;42.11;98458.98;106198;1277;24350;-81
2022/07/25 09:00:56;;;;;;;;;;;;;;;25.35;40.58;98459.20;107310;1277;22624;-84
2022/07/25 09:03:26;;;;;;;;;;;;;;;25.45;41.39;98461.63;107021;1277;124009;-83
2022/07/25 09:05:54;;;;;;;;;;;;;;;25.58;40.88;98458.57;106546;1277;22606;-82
2022/07/25 09:08:23;;;;;;;;;;;;;;;25.65;40.23;98457.94;107294;1277;123868;-80
2022/07/25 09:10:54;;;;;;;;;;;;;;;25.74;40.28;98453.56;107060;1277;22553;-88
2022/07/25 09:13:22;;;;;;;;;;;;;;;25.85;40.63;98457.54;106408;1277;124462;-88
2022/07/25 09:15:51;;;;;;;;;;;;;;;25.96;40.44;98454.33;107119;1277;22691;-87
2022/07/25 09:18:23;;;;;;;;;;;;;;;26.06;40.55;98453.79;106617;1277;22544;-87
2022/07/25 09:20:57;;;;;;;;;;;;;;;26.20;40.63;98450.79;106648;1277;124016;-88
2022/07/25 09:23:27;;;;;;;;;;;;;;;26.35;39.80;98446.02;106869;1277;22537;-85
2022/07/25 09:26:01;;;;;;;;;;;;;;;26.50;39.84;98442.90;106535;1277;124585;-87
2022/07/25 09:28:29;;;;;;;;;;;;;;;26.62;39.60;98439.29;106348;1280;22544;-88
2022/07/25 09:31:00;;;;;;;;;;;;;;;26.77;39.74;98440.41;106767;1277;22705;-89
2022/07/25 09:33:28;;;;;;;;;;;;;;;26.88;39.00;98439.45;106450;1277;124073;-89
2022/07/25 09:35:56;;;;;;;;;;;;;;;26.96;38.54;98437.91;106834;1277;22556;-85
2022/07/25 09:38:25;;;;;;;;;;;;;;;26.98;38.84;98440.46;106478;1277;123905;-85
2022/07/25 09:40:57;;;;;;;;;;;;;;;27.09;39.49;98440.28;107384;1277;22538;-89
2022/07/25 09:43:38;;;;;;;;;;;;;;;27.21;38.80;98437.66;106000;1280;124208;-88
2022/07/25 09:46:06;;;;;;;;;;;;;;;27.35;38.50;98432.58;106163;1277;24331;-88
2022/07/25 09:48:38;;;;;;;;;;;;;;;27.47;38.10;98434.33;106213;1277;25404;-87
2022/07/25 09:51:08;;;;;;;;;;;;;;;27.60;37.73;98434.05;106441;1277;124138;-88
2022/07/25 09:53:49;;;;;;;;;;;;;;;27.68;36.38;98429.70;106075;1277;23329;-89
2022/07/25 09:56:41;;;;;;;;;;;;;;;27.75;35.09;98427.56;105962;1277;127614;-89
2022/07/25 09:59:17;;;;;;;;;;;;;;;27.81;36.59;98425.38;106192;1277;22563;-89
2022/07/25 10:01:54;;;;;;;;;;;;;;;27.88;36.70;98420.14;106122;1277;124380;-86
2022/07/25 10:04:38;;;;;;;;;;;;;;;28.01;36.97;98416.73;106721;1277;22557;-88
2022/07/25 10:07:11;;;;;;;;;;;;;;;28.11;36.11;98410.16;107492;1277;23650;-89
2022/07/25 10:09:45;;;;;;;;;;;;;;;28.17;36.21;98405.75;106428;1277;125184;-88
2022/07/25 10:12:13;;;;;;;;;;;;;;;28.28;36.19;98407.61;106775;1277;22740;-89
2022/07/25 10:14:40;;;;;;;;;;;;;;;28.41;36.28;98407.98;106576;1277;124019;-89
2022/07/25 10:17:08;;;;;;;;;;;;;;;28.53;35.98;98396.33;106562;1277;22780;-88
2022/07/25 10:19:40;;;;;;;;;;;;;;;28.62;35.45;98398.06;106535;1277;124624;-87
2022/07/25 10:22:10;;;;;;;;;;;;;;;28.66;34.96;98403.52;106549;1277;22564;-91
2022/07/25 10:24:38;;;;;;;;;;;;;;;28.66;34.33;98394.95;106616;1279;25587;-90
2022/07/25 10:27:21;;;;;;;;;;;;;;;28.72;35.23;98396.59;105979;1280;124454;-89
2022/07/25 10:29:54;;;;;;;;;;;;;;;28.89;34.83;98397.83;106433;1277;23260;-88
2022/07/25 10:32:24;;;;;;;;;;;;;;;29.06;34.02;98394.25;106369;1277;124308;-89
2022/07/25 10:34:53;;;;;;;;;;;;;;;29.18;33.69;98391.23;106386;1277;23071;-88
2022/07/25 10:37:26;;;;;;;;;;;;;;;29.26;33.59;98389.21;106492;1277;22541;-87
2022/07/25 10:39:52;;;;;;;;;;;;;;;29.25;32.77;98382.96;106408;1277;22705;-88
2022/07/25 10:42:22;;;;;;;;;;;;;;;29.27;32.25;98379.79;106191;1277;25423;-86
2022/07/25 10:44:52;;;;;;;;;;;;;;;29.33;32.77;98378.39;106213;1277;124235;-89
2022/07/25 10:47:22;;;;;;;;;;;;;;;29.35;32.84;98374.96;106302;1279;22716;-89
2022/07/25 10:49:55;;;;;;;;;;;;;;;29.44;32.63;98375.35;106047;1277;124250;-89
2022/07/25 10:52:26;;;;;;;;;;;;;;;29.57;31.74;98372.80;105946;1280;22560;-88
2022/07/25 10:54:54;;;;;;;;;;;;;;;29.72;31.60;98370.16;105921;1279;22678;-91
2022/07/25 10:57:21;;;;;;;;;;;;;;;29.77;30.20;98367.71;105961;1280;124158;-88
2022/07/25 10:59:47;;;;;;;;;;;;;;;29.83;31.15;98364.20;105912;1277;24284;-87
2022/07/25 11:02:17;;;;;;;;;;;;;;;29.92;31.41;98358.65;106075;1277;123895;-86
2022/07/25 11:04:45;;;;;;;;;;;;;;;29.98;31.88;98358.73;106070;1280;22596;-87
2022/07/25 11:07:13;;;;;;;;;;;;;;;30.02;31.47;98352.07;106297;1277;22554;-84
2022/07/25 11:09:40;;;;;;;;;;;;;;;30.06;31.10;98353.82;106150;1277;123812;-87
2022/07/25 11:12:08;;;;;;;;;;;;;;;30.09;31.44;98352.56;106274;1277;25256;-90
2022/07/25 11:14:38;;;;;;;;;;;;;;;30.11;31.93;98351.96;105840;1280;123976;-87
2022/07/25 11:17:12;;;;;;;;;;;;;;;30.21;31.47;98352.34;106206;1280;24262;-88
2022/07/25 11:19:39;;;;;;;;;;;;;;;30.27;31.15;98349.45;106036;1277;124321;-88
2022/07/25 11:22:07;;;;;;;;;;;;;;;30.30;29.67;98345.02;106068;1277;22611;-80
2022/07/25 11:24:43;;;;;;;;;;;;;;;30.41;29.92;98341.89;106155;1280;22693;-87
2022/07/25 11:27:11;;;;;;;;;;;;;;;30.49;29.82;98338.48;106253;1277;123992;-86
2022/07/25 11:29:39;;;;;;;;;;;;;;;30.57;29.96;98331.66;106126;1277;22876;-87
2022/07/25 11:32:07;;;;;;;;;;;;;;;30.60;28.77;98328.74;105989;1277;123958;-87
2022/07/25 11:34:36;;;;;;;;;;;;;;;30.68;27.66;98326.81;106365;1277;25051;-87
2022/07/25 11:37:04;;;;;;;;;;;;;;;30.68;27.17;98322.08;106101;1277;23170;-87
2022/07/25 11:39:35;;;;;;;;;;;;;;;30.68;26.86;98321.60;106128;1277;124050;-84
2022/07/25 11:42:03;;;;;;;;;;;;;;;30.65;26.73;98313.70;106131;1280;30414;-89
2022/07/25 11:44:38;;;;;;;;;;;;;;;30.70;27.84;98315.36;105782;1280;124033;-86
2022/07/25 11:47:06;;;;;;;;;;;;;;;30.74;26.76;98314.44;106162;1280;24319;-86
2022/07/25 11:49:46;;;;;;;;;;;;;;;30.71;26.57;98308.55;106144;1280;124707;-86
2022/07/25 11:52:26;;;;;;;;;;;;;;;30.85;27.28;98306.30;106106;1278;25453;-87
2022/07/25 11:54:54;;;;;;;;;;;;;;;31.06;27.30;98307.59;105774;1277;623549;-85
2022/07/25 11:57:25;;;;;;;;;;;;;;;31.14;26.95;98294.58;106336;1278;124104;-84
2022/07/25 11:59:53;;;;;;;;;;;;;;;31.27;26.57;98293.33;106125;1277;22614;-85
2022/07/25 12:02:21;;;;;;;;;;;;;;;31.20;25.78;98287.80;106132;1277;123909;-85
2022/07/25 12:04:54;;;;;;;;;;;;;;;31.21;27.29;98286.36;106297;1277;22535;-89
2022/07/25 12:07:21;;;;;;;;;;;;;;;31.32;27.81;98282.27;105902;1277;124222;-88
2022/07/25 12:09:56;;;;;;;;;;;;;;;31.43;27.66;98281.17;105943;1277;22613;-88
2022/07/25 12:12:22;;;;;;;;;;;;;;;31.53;27.31;98281.30;106265;1277;22525;-89
2022/07/25 12:14:51;;;;;;;;;;;;;;;31.64;25.98;98276.85;105841;1277;124899;-91
2022/07/25 12:17:18;;;;;;;;;;;;;;;31.72;25.11;98274.98;106024;1280;22644;-88
2022/07/25 12:19:48;;;;;;;;;;;;;;;31.74;25.09;98270.89;105945;1279;124085;-88
2022/07/25 12:22:15;;;;;;;;;;;;;;;31.71;24.65;98267.73;106382;1277;25354;-86
2022/07/25 12:24:42;;;;;;;;;;;;;;;31.75;24.97;98257.88;106202;1277;22581;-89
2022/07/25 12:27:09;;;;;;;;;;;;;;;31.66;23.70;98257.25;106060;1277;124011;-90
2022/07/25 12:29:36;;;;;;;;;;;;;;;31.49;24.02;98252.52;105863;1280;23187;-90
2022/07/25 12:32:02;;;;;;;;;;;;;;;31.52;25.34;98250.40;105969;1280;124161;-89
2022/07/25 12:34:30;;;;;;;;;;;;;;;31.62;25.40;98245.15;106205;1277;25196;-87
2022/07/25 12:36:57;;;;;;;;;;;;;;;31.74;26.03;98234.93;106351;1277;22561;-87
2022/07/25 12:39:23;;;;;;;;;;;;;;;31.98;25.55;98235.33;106089;1277;124135;-89
2022/07/25 12:41:51;;;;;;;;;;;;;;;32.19;25.99;98233.60;105993;1277;24205;-88